Time;durP1;ratioP1;P1;durP2;ratioP2;P2;SDS_P1;SDS_P2;PMS_P1;PMS_P2;Temp;Humidity;BMP_temperature;BMP_pressure;BME280_temperature;BME280_humidity;BME280_pressure;Samples;Min_cycle;Max_cycle;Signal;HPM_P1;HPM_P2
2023/03/12 00:02:08;;;;;;;1.20;1.10;;;11.70;44.60;;;;;;5088516;28;45265;-68
2023/03/12 00:04:35;;;;;;;3.23;1.43;;;11.70;44.60;;;;;;5088751;28;45264;-67
2023/03/12 00:07:05;;;;;;;2.13;1.40;;;11.70;44.60;;;;;;5088771;28;45332;-68
2023/03/12 00:09:34;;;;;;;3.07;1.40;;;11.70;44.60;;;;;;5088666;28;45404;-68
2023/03/12 00:12:01;;;;;;;1.93;1.20;;;11.70;44.60;;;;;;5088363;28;46618;-68
2023/03/12 00:14:29;;;;;;;1.40;1.27;;;11.60;44.60;;;;;;5088378;28;45426;-68
2023/03/12 00:16:56;;;;;;;2.57;1.20;;;11.60;44.60;;;;;;5088301;28;45323;-68
2023/03/12 00:19:23;;;;;;;1.10;1.03;;;11.70;44.60;;;;;;5088736;28;45394;-67
2023/03/12 00:21:49;;;;;;;2.00;1.30;;;11.70;44.70;;;;;;5088335;28;47313;-68
2023/03/12 00:24:16;;;;;;;2.77;1.73;;;11.60;44.60;;;;;;5087976;28;45254;-68
2023/03/12 00:26:43;;;;;;;1.50;1.40;;;11.70;44.70;;;;;;5088078;28;45357;-68
2023/03/12 00:29:10;;;;;;;1.70;1.10;;;11.60;44.60;;;;;;5088287;28;45420;-71
2023/03/12 00:31:38;;;;;;;1.50;1.40;;;11.60;44.60;;;;;;5088011;28;47314;-68
2023/03/12 00:34:05;;;;;;;1.47;1.30;;;11.60;44.60;;;;;;5087947;28;45304;-68
2023/03/12 00:36:32;;;;;;;1.63;1.23;;;11.60;44.70;;;;;;5088306;28;45321;-68
2023/03/12 00:38:59;;;;;;;2.33;1.30;;;11.60;44.70;;;;;;5088220;28;45518;-68
2023/03/12 00:41:27;;;;;;;1.83;1.40;;;11.60;44.70;;;;;;5087570;28;46383;-68
2023/03/12 00:43:53;;;;;;;1.80;1.40;;;11.60;44.70;;;;;;5087589;28;45357;-68
2023/03/12 00:46:20;;;;;;;2.83;1.07;;;11.60;44.70;;;;;;5087640;28;45139;-68
2023/03/12 00:48:48;;;;;;;2.53;1.33;;;11.60;44.80;;;;;;5087841;28;45321;-67
2023/03/12 00:51:16;;;;;;;1.87;1.40;;;11.60;44.80;;;;;;5087364;28;46727;-67
2023/03/12 00:53:42;;;;;;;2.07;1.07;;;11.60;44.80;;;;;;5087378;28;45359;-67
2023/03/12 00:56:09;;;;;;;1.93;0.83;;;11.60;44.80;;;;;;5087606;28;45179;-67
2023/03/12 00:58:36;;;;;;;1.97;1.37;;;11.60;44.80;;;;;;5087579;28;45207;-68
2023/03/12 01:01:03;;;;;;;1.27;1.17;;;11.60;44.80;;;;;;5087152;27;45246;-67
2023/03/12 01:03:30;;;;;;;1.83;1.10;;;11.50;44.70;;;;;;5087175;28;45365;-67
2023/03/12 01:05:59;;;;;;;2.30;1.30;;;11.50;44.80;;;;;;5087364;28;45335;-68
2023/03/12 01:08:26;;;;;;;1.77;1.20;;;11.50;44.80;;;;;;5087738;28;45402;-67
2023/03/12 01:10:52;;;;;;;1.20;1.10;;;11.50;44.80;;;;;;5087145;28;46351;-67
2023/03/12 01:13:19;;;;;;;1.97;1.30;;;11.50;44.80;;;;;;5086972;28;45323;-67
2023/03/12 01:15:46;;;;;;;2.40;1.40;;;11.60;44.90;;;;;;5086958;28;45376;-66
2023/03/12 01:18:13;;;;;;;2.53;1.20;;;11.50;44.80;;;;;;5084673;28;45320;-68
2023/03/12 01:20:40;;;;;;;1.03;0.93;;;11.60;44.90;;;;;;5086830;28;46353;-67
2023/03/12 01:23:09;;;;;;;1.60;1.20;;;11.50;44.80;;;;;;5086936;28;45322;-67
2023/03/12 01:25:35;;;;;;;1.37;1.20;;;11.50;44.80;;;;;;5087083;28;45315;-67
2023/03/12 01:28:03;;;;;;;2.23;1.17;;;11.50;44.90;;;;;;5087230;28;45329;-68
2023/03/12 01:30:29;;;;;;;1.20;1.10;;;11.50;44.80;;;;;;5086679;28;45278;-68
2023/03/12 01:32:56;;;;;;;1.87;1.30;;;11.50;44.80;;;;;;5084140;28;45317;-67
2023/03/12 01:35:23;;;;;;;1.33;1.13;;;11.50;44.90;;;;;;5087104;28;45311;-68
2023/03/12 01:37:51;;;;;;;1.30;1.10;;;11.50;44.90;;;;;;5086918;28;45336;-67
2023/03/12 01:40:20;;;;;;;2.80;1.40;;;11.50;44.90;;;;;;5086543;28;45867;-68
2023/03/12 01:42:52;;;;;;;1.73;1.13;;;11.50;44.90;;;;;;5086601;28;45348;-67
2023/03/12 01:45:56;;;;;;;1.20;1.10;;;11.50;44.90;;;;;;5086902;28;45527;-68
2023/03/12 01:48:23;;;;;;;1.40;1.20;;;11.50;44.90;;;;;;5086962;28;45638;-67
2023/03/12 01:50:49;;;;;;;1.33;1.17;;;11.50;44.90;;;;;;5086310;28;45447;-67
2023/03/12 01:53:16;;;;;;;1.20;0.93;;;11.50;44.90;;;;;;5086236;28;45276;-67
2023/03/12 01:55:45;;;;;;;1.20;1.10;;;11.50;44.90;;;;;;5086453;28;45257;-67
2023/03/12 01:58:12;;;;;;;2.93;1.40;;;11.50;45.00;;;;;;5086725;28;45360;-68
2023/03/12 02:00:38;;;;;;;1.07;1.07;;;11.50;45.00;;;;;;5086246;28;46718;-68
2023/03/12 02:03:06;;;;;;;1.20;1.10;;;11.50;45.00;;;;;;5086197;28;45391;-68
2023/03/12 02:05:37;;;;;;;1.13;1.07;;;11.50;45.00;;;;;;5086632;28;45457;-67
2023/03/12 02:08:04;;;;;;;1.60;1.10;;;11.50;45.00;;;;;;5086508;28;45348;-68
2023/03/12 02:10:30;;;;;;;1.23;1.13;;;11.50;45.00;;;;;;5086148;28;45338;-68
2023/03/12 02:12:59;;;;;;;1.20;1.10;;;11.50;45.00;;;;;;5085344;27;45355;-67
2023/03/12 02:15:26;;;;;;;1.50;1.20;;;11.50;45.00;;;;;;5086189;28;45467;-67
2023/03/12 02:17:53;;;;;;;0.93;0.90;;;11.50;45.00;;;;;;5086326;28;45450;-68
2023/03/12 02:20:21;;;;;;;1.93;1.23;;;11.50;45.00;;;;;;5085850;28;46916;-67
2023/03/12 02:22:49;;;;;;;1.57;0.80;;;11.50;45.00;;;;;;5085879;28;45366;-68
2023/03/12 02:25:23;;;;;;;1.53;1.00;;;11.50;45.10;;;;;;5086232;28;45372;-68
2023/03/12 02:27:50;;;;;;;1.00;1.00;;;11.50;45.10;;;;;;5086183;28;45370;-67
2023/03/12 02:30:17;;;;;;;1.80;1.00;;;11.50;45.10;;;;;;5085813;28;46394;-67
2023/03/12 02:32:44;;;;;;;1.53;0.90;;;11.50;45.10;;;;;;5085922;28;45352;-68
2023/03/12 02:35:11;;;;;;;1.30;1.20;;;11.50;45.10;;;;;;5086008;28;45270;-67
2023/03/12 02:37:47;;;;;;;2.50;1.10;;;11.50;45.20;;;;;;5086184;28;45345;-68
2023/03/12 02:40:17;;;;;;;1.93;1.20;;;11.50;45.20;;;;;;5085584;28;45313;-68
2023/03/12 02:42:45;;;;;;;1.67;1.10;;;11.50;45.30;;;;;;5085539;28;45492;-68
2023/03/12 02:45:12;;;;;;;2.10;1.07;;;11.50;45.30;;;;;;5085805;28;45179;-67
2023/03/12 02:47:39;;;;;;;1.93;1.23;;;11.40;45.20;;;;;;5085973;28;45253;-68
2023/03/12 02:50:07;;;;;;;1.70;0.90;;;11.50;45.30;;;;;;5085570;28;46546;-68
2023/03/12 02:52:35;;;;;;;1.13;1.10;;;11.50;45.40;;;;;;5085440;28;45378;-68
2023/03/12 02:55:02;;;;;;;1.50;1.00;;;11.40;45.30;;;;;;5085735;28;45283;-68
2023/03/12 02:57:28;;;;;;;1.10;1.00;;;11.50;45.40;;;;;;5085962;28;45190;-68
2023/03/12 02:59:57;;;;;;;1.00;0.90;;;11.50;45.40;;;;;;5085225;28;47326;-68
2023/03/12 03:02:24;;;;;;;1.47;1.10;;;11.50;45.50;;;;;;5085550;28;45536;-67
2023/03/12 03:04:51;;;;;;;1.23;0.90;;;11.50;45.50;;;;;;5085389;28;45324;-68
2023/03/12 03:07:17;;;;;;;2.20;1.37;;;11.40;45.50;;;;;;5085673;28;45369;-68
2023/03/12 03:09:44;;;;;;;2.30;1.43;;;11.40;45.50;;;;;;5085204;28;46683;-68
2023/03/12 03:12:11;;;;;;;0.90;0.90;;;11.40;45.50;;;;;;5085261;28;45312;-68
2023/03/12 03:14:38;;;;;;;1.17;1.07;;;11.40;45.60;;;;;;5085363;28;45230;-68
2023/03/12 03:17:06;;;;;;;1.13;1.00;;;11.40;45.60;;;;;;5085310;28;45411;-68
2023/03/12 03:19:35;;;;;;;1.60;1.07;;;11.40;45.60;;;;;;5085300;28;45322;-67
2023/03/12 03:22:02;;;;;;;1.93;1.10;;;11.40;45.60;;;;;;5085265;28;45447;-68
2023/03/12 03:24:29;;;;;;;1.27;1.03;;;11.40;45.60;;;;;;5086126;27;45351;-69
2023/03/12 03:26:55;;;;;;;1.93;1.33;;;11.40;45.70;;;;;;5089100;28;45311;-68
2023/03/12 03:29:22;;;;;;;1.10;1.00;;;11.40;45.70;;;;;;5088758;28;46290;-67
2023/03/12 03:31:49;;;;;;;2.07;1.27;;;11.40;45.70;;;;;;5088624;28;45292;-68
2023/03/12 03:34:17;;;;;;;1.50;1.27;;;11.40;45.80;;;;;;5088773;28;45274;-68
2023/03/12 03:36:44;;;;;;;1.63;0.90;;;11.40;45.80;;;;;;5088921;28;45489;-68
2023/03/12 03:39:11;;;;;;;2.93;1.00;;;11.40;45.80;;;;;;5088417;28;46441;-68
2023/03/12 03:41:38;;;;;;;0.87;0.83;;;11.40;45.80;;;;;;5088616;28;45375;-68
2023/03/12 03:44:06;;;;;;;1.10;1.00;;;11.40;45.80;;;;;;5088550;28;45354;-68
2023/03/12 03:46:34;;;;;;;2.80;1.20;;;11.50;45.80;;;;;;5088798;28;45545;-68
2023/03/12 03:49:00;;;;;;;1.93;1.20;;;11.40;45.70;;;;;;5088629;28;46307;-68
2023/03/12 03:51:31;;;;;;;1.20;1.00;;;11.40;45.70;;;;;;5088248;28;45238;-67
2023/03/12 03:53:59;;;;;;;1.17;1.00;;;11.40;45.80;;;;;;5088453;28;45399;-68
2023/03/12 03:56:26;;;;;;;1.10;1.00;;;11.40;45.80;;;;;;5088922;28;45410;-67
2023/03/12 03:58:52;;;;;;;1.37;1.13;;;11.50;45.80;;;;;;5087997;28;45362;-68
2023/03/12 04:01:19;;;;;;;0.80;0.80;;;11.50;45.80;;;;;;5088409;28;45318;-68
2023/03/12 04:03:46;;;;;;;1.40;0.90;;;11.50;45.80;;;;;;5088307;28;45398;-68
2023/03/12 04:06:13;;;;;;;1.20;1.03;;;11.40;45.80;;;;;;5088401;28;45375;-68
2023/03/12 04:08:41;;;;;;;1.20;0.70;;;11.50;45.80;;;;;;5088146;28;45366;-68
2023/03/12 04:11:09;;;;;;;1.30;0.80;;;11.50;45.80;;;;;;5088174;28;45261;-68
2023/03/12 04:13:35;;;;;;;1.70;0.70;;;11.50;45.80;;;;;;5088148;28;45317;-68
2023/03/12 04:16:02;;;;;;;1.00;1.00;;;11.50;45.80;;;;;;5088138;28;45388;-68
2023/03/12 04:18:29;;;;;;;1.53;1.03;;;11.50;45.90;;;;;;5088103;28;46292;-68
2023/03/12 04:20:56;;;;;;;1.17;0.93;;;11.50;45.90;;;;;;5087912;28;46029;-67
2023/03/12 04:23:23;;;;;;;0.97;0.97;;;11.50;45.90;;;;;;5088162;28;45384;-67
2023/03/12 04:25:51;;;;;;;1.27;0.90;;;11.50;45.90;;;;;;5088263;28;45415;-67
2023/03/12 04:28:18;;;;;;;1.20;0.93;;;11.50;45.90;;;;;;5088000;28;46560;-67
2023/03/12 04:30:45;;;;;;;0.80;0.80;;;11.50;45.90;;;;;;5087889;28;45301;-67
2023/03/12 04:33:11;;;;;;;0.87;0.87;;;11.50;45.90;;;;;;5087883;28;45348;-67
2023/03/12 04:35:38;;;;;;;1.23;1.07;;;11.50;46.40;;;;;;5087564;27;45301;-68
2023/03/12 04:38:05;;;;;;;0.90;0.90;;;11.50;46.00;;;;;;5087644;28;45378;-68
2023/03/12 04:40:32;;;;;;;0.83;0.83;;;11.50;46.00;;;;;;5087828;28;45422;-67
2023/03/12 04:43:00;;;;;;;1.23;1.00;;;11.50;46.60;;;;;;5087802;28;45446;-67
2023/03/12 04:45:27;;;;;;;1.13;0.80;;;11.50;46.00;;;;;;5087937;28;45670;-67
2023/03/12 04:47:54;;;;;;;2.17;1.00;;;11.50;46.00;;;;;;5087595;28;45305;-68
2023/03/12 04:50:21;;;;;;;1.00;1.00;;;11.50;46.00;;;;;;5087580;28;45277;-69
2023/03/12 04:52:48;;;;;;;0.80;0.80;;;11.50;46.00;;;;;;5087692;28;45347;-68
2023/03/12 04:55:15;;;;;;;1.43;0.90;;;11.50;46.00;;;;;;5087684;28;45506;-67
2023/03/12 04:57:41;;;;;;;1.27;0.83;;;11.50;46.00;;;;;;5087351;28;46672;-68
2023/03/12 05:00:12;;;;;;;0.93;0.77;;;11.50;46.00;;;;;;5087291;28;45234;-68
2023/03/12 05:02:39;;;;;;;0.80;0.80;;;11.50;46.10;;;;;;5087326;28;45402;-67
2023/03/12 05:05:06;;;;;;;0.90;0.90;;;11.50;46.10;;;;;;5087742;28;45291;-67
2023/03/12 05:07:33;;;;;;;1.40;0.80;;;11.50;46.10;;;;;;5087247;28;45309;-68
2023/03/12 05:10:00;;;;;;;0.90;0.90;;;11.50;46.10;;;;;;5087346;28;45311;-68
2023/03/12 05:12:27;;;;;;;0.90;0.90;;;11.50;46.10;;;;;;5087434;28;45409;-68
2023/03/12 05:14:54;;;;;;;0.93;0.90;;;11.50;46.20;;;;;;5087408;28;45324;-67
2023/03/12 05:17:22;;;;;;;0.70;0.70;;;11.60;46.80;;;;;;5086661;28;46336;-67
2023/03/12 05:19:49;;;;;;;0.70;0.70;;;11.50;46.20;;;;;;5086980;28;45399;-67
2023/03/12 05:22:16;;;;;;;0.90;0.90;;;11.50;46.20;;;;;;5087234;28;45220;-67
2023/03/12 05:24:43;;;;;;;1.17;0.90;;;11.60;46.20;;;;;;5087281;28;45436;-68
2023/03/12 05:27:10;;;;;;;1.20;1.10;;;11.50;46.20;;;;;;5086785;28;45360;-67
2023/03/12 05:29:37;;;;;;;1.13;1.03;;;11.50;46.30;;;;;;5087377;28;45394;-68
2023/03/12 05:32:04;;;;;;;1.63;0.97;;;11.50;46.30;;;;;;5087097;28;45369;-68
2023/03/12 05:34:32;;;;;;;0.60;0.60;;;11.60;47.00;;;;;;5087286;28;45364;-68
2023/03/12 05:36:59;;;;;;;0.80;0.80;;;11.50;46.30;;;;;;5086750;28;45631;-67
2023/03/12 05:39:27;;;;;;;0.63;0.63;;;11.50;46.40;;;;;;5086685;28;45385;-68
2023/03/12 05:41:55;;;;;;;0.87;0.87;;;11.60;46.40;;;;;;5086838;28;45299;-67
2023/03/12 05:44:22;;;;;;;1.00;0.90;;;11.60;47.10;;;;;;5087111;28;45489;-68
2023/03/12 05:46:49;;;;;;;0.53;0.53;;;11.60;46.50;;;;;;5085882;27;47689;-68
2023/03/12 05:49:16;;;;;;;0.87;0.87;;;11.60;46.50;;;;;;5086332;28;45451;-68
2023/03/12 05:51:44;;;;;;;1.50;0.80;;;11.60;46.40;;;;;;5086940;28;45269;-68
2023/03/12 05:54:11;;;;;;;0.93;0.90;;;11.60;46.40;;;;;;5086989;28;45325;-68
2023/03/12 05:56:38;;;;;;;0.70;0.70;;;11.60;46.50;;;;;;5086516;28;45391;-68
2023/03/12 05:59:05;;;;;;;0.67;0.67;;;11.60;46.50;;;;;;5086474;28;45266;-68
2023/03/12 06:01:32;;;;;;;0.80;0.80;;;11.60;46.50;;;;;;5086519;28;45380;-67
2023/03/12 06:03:58;;;;;;;0.70;0.70;;;11.60;46.60;;;;;;5086728;28;45348;-71
2023/03/12 06:06:25;;;;;;;0.60;0.60;;;11.60;46.50;;;;;;5086111;28;45478;-68
2023/03/12 06:08:54;;;;;;;0.93;0.87;;;11.60;46.60;;;;;;5086434;28;45203;-67
2023/03/12 06:11:20;;;;;;;1.23;0.80;;;11.60;46.60;;;;;;5086456;28;45310;-68
2023/03/12 06:13:47;;;;;;;0.83;0.50;;;11.60;46.60;;;;;;5086511;28;45360;-68
2023/03/12 06:16:16;;;;;;;1.03;0.80;;;11.60;46.70;;;;;;5085937;27;45391;-69
2023/03/12 06:18:43;;;;;;;1.27;0.60;;;11.60;46.60;;;;;;5086198;28;45185;-68
2023/03/12 06:21:10;;;;;;;0.80;0.70;;;11.60;46.60;;;;;;5086148;28;45296;-68
2023/03/12 06:23:37;;;;;;;0.83;0.83;;;11.60;46.60;;;;;;5086487;28;45361;-68
2023/03/12 06:26:06;;;;;;;1.00;0.70;;;11.60;46.70;;;;;;5085934;28;46727;-68
2023/03/12 06:28:33;;;;;;;0.70;0.70;;;11.60;46.70;;;;;;5086102;28;45319;-67
2023/03/12 06:31:00;;;;;;;1.13;0.63;;;11.60;46.70;;;;;;5086105;28;45431;-68
2023/03/12 06:33:27;;;;;;;0.80;0.80;;;11.60;46.60;;;;;;5086395;28;45440;-68
2023/03/12 06:35:55;;;;;;;0.63;0.63;;;11.70;46.80;;;;;;5085827;28;46663;-68
2023/03/12 06:38:22;;;;;;;1.10;0.70;;;11.70;46.80;;;;;;5085996;28;45198;-68
2023/03/12 06:40:54;;;;;;;0.70;0.60;;;11.70;46.70;;;;;;5085919;28;45301;-68
2023/03/12 06:43:23;;;;;;;0.80;0.73;;;11.70;46.70;;;;;;5086388;28;45332;-68
2023/03/12 06:45:49;;;;;;;0.90;0.70;;;11.70;46.70;;;;;;5085845;28;46312;-68
2023/03/12 06:48:16;;;;;;;0.67;0.67;;;11.70;47.40;;;;;;5085753;28;45411;-68
2023/03/12 06:50:43;;;;;;;0.50;0.50;;;11.70;46.70;;;;;;5086098;28;45391;-68
2023/03/12 06:53:10;;;;;;;0.80;0.77;;;11.70;46.70;;;;;;5085890;28;45412;-68
2023/03/12 06:55:37;;;;;;;0.60;0.60;;;11.70;46.80;;;;;;5085552;28;45432;-68
2023/03/12 06:58:04;;;;;;;0.60;0.50;;;11.70;46.70;;;;;;5085249;28;45324;-68
2023/03/12 07:00:33;;;;;;;0.57;0.57;;;11.70;46.80;;;;;;5085734;28;45383;-68
2023/03/12 07:03:00;;;;;;;0.80;0.80;;;11.70;46.70;;;;;;5085948;28;45444;-68
2023/03/12 07:05:27;;;;;;;0.97;0.60;;;11.80;46.70;;;;;;5085377;28;46427;-68
2023/03/12 07:07:54;;;;;;;1.07;0.80;;;11.80;46.70;;;;;;5085811;28;45384;-68
2023/03/12 07:10:21;;;;;;;0.60;0.60;;;11.80;46.70;;;;;;5085688;28;45290;-67
2023/03/12 07:12:48;;;;;;;0.60;0.60;;;11.80;46.70;;;;;;5085626;28;45365;-68
2023/03/12 07:15:15;;;;;;;0.60;0.60;;;11.80;46.70;;;;;;5085150;28;45483;-68
2023/03/12 07:17:43;;;;;;;0.70;0.70;;;11.80;46.70;;;;;;5085457;28;45254;-68
2023/03/12 07:20:11;;;;;;;0.93;0.83;;;11.80;47.30;;;;;;5085555;28;45254;-68
2023/03/12 07:22:38;;;;;;;0.60;0.60;;;11.80;46.70;;;;;;5085709;28;45295;-68
2023/03/12 07:25:06;;;;;;;0.50;0.50;;;11.80;46.70;;;;;;5085499;28;47314;-68
2023/03/12 07:27:32;;;;;;;0.77;0.50;;;11.80;46.70;;;;;;5085227;28;45145;-68
2023/03/12 07:29:59;;;;;;;0.60;0.60;;;11.80;46.70;;;;;;5085305;28;45349;-68
2023/03/12 07:32:26;;;;;;;0.50;0.50;;;11.90;46.80;;;;;;5085433;28;45398;-68
2023/03/12 07:34:54;;;;;;;0.60;0.60;;;11.90;46.70;;;;;;5085081;28;45416;-68
2023/03/12 07:37:21;;;;;;;0.50;0.50;;;11.90;46.80;;;;;;5085402;28;45284;-68
2023/03/12 07:39:51;;;;;;;0.50;0.50;;;11.90;46.70;;;;;;5085296;28;45258;-68
2023/03/12 07:42:17;;;;;;;0.50;0.50;;;11.90;46.70;;;;;;5085216;28;45527;-68
2023/03/12 07:44:44;;;;;;;0.47;0.47;;;11.90;46.70;;;;;;5085025;28;46307;-68
2023/03/12 07:47:11;;;;;;;0.97;0.80;;;11.90;46.70;;;;;;5085122;28;45174;-68
2023/03/12 07:49:40;;;;;;;0.87;0.67;;;11.90;46.70;;;;;;5085177;28;45198;-68
2023/03/12 07:52:10;;;;;;;1.47;1.00;;;12.00;46.70;;;;;;5085296;28;45407;-68
2023/03/12 07:54:37;;;;;;;0.63;0.63;;;12.00;46.70;;;;;;5085000;28;46661;-68
2023/03/12 07:57:04;;;;;;;0.60;0.60;;;12.00;46.70;;;;;;5084880;28;45252;-68
2023/03/12 07:59:31;;;;;;;1.20;0.60;;;12.00;47.30;;;;;;5085207;28;45317;-68
2023/03/12 08:01:58;;;;;;;0.60;0.60;;;12.00;46.70;;;;;;5085409;28;45332;-68
2023/03/12 08:04:24;;;;;;;1.17;0.70;;;12.00;46.70;;;;;;5084938;28;46392;-68
2023/03/12 08:06:51;;;;;;;0.57;0.57;;;12.00;46.70;;;;;;5084926;28;45321;-69
2023/03/12 08:09:20;;;;;;;0.53;0.47;;;12.00;46.70;;;;;;5084921;28;45245;-68
2023/03/12 08:11:47;;;;;;;0.50;0.50;;;12.00;46.70;;;;;;5087569;28;45364;-68
2023/03/12 08:14:13;;;;;;;0.60;0.60;;;12.00;46.70;;;;;;5088002;28;46393;-69
2023/03/12 08:16:40;;;;;;;0.50;0.50;;;12.10;46.80;;;;;;5087786;28;45337;-68
2023/03/12 08:19:10;;;;;;;0.50;0.50;;;12.10;46.80;;;;;;5088387;28;45312;-69
2023/03/12 08:21:37;;;;;;;0.50;0.50;;;12.10;46.80;;;;;;5088269;28;45397;-68
2023/03/12 08:24:04;;;;;;;0.60;0.60;;;12.10;46.70;;;;;;5087932;28;45638;-68
2023/03/12 08:26:32;;;;;;;0.47;0.47;;;12.10;46.70;;;;;;5088049;28;45316;-69
2023/03/12 08:29:00;;;;;;;0.50;0.50;;;12.10;46.80;;;;;;5088047;28;45205;-68
2023/03/12 08:31:27;;;;;;;0.50;0.50;;;12.10;46.70;;;;;;5088321;28;45330;-68
2023/03/12 08:33:56;;;;;;;0.40;0.37;;;12.10;46.70;;;;;;5087736;28;45580;-68
2023/03/12 08:36:22;;;;;;;0.50;0.50;;;12.10;46.70;;;;;;5087959;28;45336;-68
2023/03/12 08:38:49;;;;;;;0.40;0.40;;;12.20;46.70;;;;;;5087961;28;45262;-68
2023/03/12 08:41:16;;;;;;;0.30;0.30;;;12.20;46.70;;;;;;5087863;28;45497;-68
2023/03/12 08:43:45;;;;;;;0.40;0.40;;;12.20;46.70;;;;;;5087563;28;46411;-68
2023/03/12 08:46:12;;;;;;;0.40;0.40;;;12.20;46.80;;;;;;5087778;28;45327;-68
2023/03/12 08:48:39;;;;;;;0.40;0.40;;;12.30;46.80;;;;;;5087851;28;45244;-68
2023/03/12 08:51:06;;;;;;;0.40;0.40;;;12.30;46.90;;;;;;5088089;28;45311;-68
2023/03/12 08:53:34;;;;;;;0.50;0.50;;;12.30;46.80;;;;;;5087519;28;45639;-69
2023/03/12 08:56:04;;;;;;;0.50;0.50;;;12.30;46.90;;;;;;5087559;28;45238;-68
2023/03/12 08:58:31;;;;;;;0.50;0.50;;;12.30;47.00;;;;;;5088126;28;45317;-69
2023/03/12 09:00:59;;;;;;;0.40;0.40;;;12.30;46.90;;;;;;5088252;28;45491;-69
2023/03/12 09:03:26;;;;;;;0.50;0.50;;;12.30;47.10;;;;;;5087729;28;45313;-69
2023/03/12 09:06:02;;;;;;;0.70;0.70;;;12.30;47.10;;;;;;5087931;28;45354;-68
2023/03/12 09:08:29;;;;;;;0.40;0.40;;;12.30;47.00;;;;;;5087930;28;45336;-72
2023/03/12 09:10:56;;;;;;;0.63;0.40;;;12.30;47.10;;;;;;5087712;28;45470;-68
2023/03/12 09:13:23;;;;;;;0.40;0.40;;;12.30;47.70;;;;;;5087334;28;45584;-68
2023/03/12 09:15:50;;;;;;;0.50;0.50;;;12.40;47.10;;;;;;5087154;28;45357;-69
2023/03/12 09:18:19;;;;;;;0.50;0.50;;;12.40;47.10;;;;;;5084800;28;45333;-68
2023/03/12 09:20:46;;;;;;;0.60;0.53;;;12.40;47.10;;;;;;5087765;28;45479;-69
2023/03/12 09:23:13;;;;;;;0.60;0.60;;;12.40;47.10;;;;;;5086981;28;46308;-69
2023/03/12 09:25:40;;;;;;;0.53;0.53;;;12.40;47.10;;;;;;5087171;28;45368;-69
2023/03/12 09:28:08;;;;;;;0.40;0.40;;;12.40;47.00;;;;;;5087383;28;45399;-69
2023/03/12 09:30:34;;;;;;;0.40;0.40;;;12.40;47.10;;;;;;5087589;28;45451;-69
2023/03/12 09:33:02;;;;;;;0.50;0.50;;;12.50;47.10;;;;;;5086870;28;47282;-68
2023/03/12 09:35:30;;;;;;;0.30;0.30;;;12.50;47.10;;;;;;5086563;28;45351;-68
2023/03/12 09:37:57;;;;;;;0.43;0.40;;;12.50;47.20;;;;;;5087188;28;45392;-69
2023/03/12 09:40:25;;;;;;;0.47;0.47;;;12.50;47.20;;;;;;5087167;28;45377;-68
2023/03/12 09:42:53;;;;;;;0.70;0.50;;;12.50;47.20;;;;;;5086552;28;45435;-68
2023/03/12 09:45:21;;;;;;;0.80;0.47;;;12.50;47.30;;;;;;5087010;28;45510;-68
2023/03/12 09:47:49;;;;;;;0.50;0.50;;;12.60;47.20;;;;;;5086840;28;45257;-68
2023/03/12 09:50:20;;;;;;;0.40;0.40;;;12.60;47.20;;;;;;5087140;28;45576;-68
2023/03/12 09:52:51;;;;;;;0.50;0.50;;;12.60;47.20;;;;;;5086421;28;45407;-68
2023/03/12 09:55:19;;;;;;;0.60;0.50;;;12.60;47.20;;;;;;5083938;28;45330;-68
2023/03/12 09:57:46;;;;;;;0.37;0.37;;;12.60;47.30;;;;;;5086823;28;45359;-68
2023/03/12 10:00:14;;;;;;;0.60;0.60;;;12.60;47.30;;;;;;5086782;28;45400;-68
2023/03/12 10:02:55;;;;;;;0.23;0.23;;;12.70;47.30;;;;;;5086266;28;45377;-68
2023/03/12 10:05:26;;;;;;;0.67;0.60;;;12.70;47.30;;;;;;5086446;28;45239;-68
2023/03/12 10:07:57;;;;;;;0.40;0.40;;;12.70;47.30;;;;;;5086524;28;45262;-68
2023/03/12 10:10:32;;;;;;;0.30;0.30;;;12.70;47.30;;;;;;5086518;28;45249;-68
2023/03/12 10:13:09;;;;;;;0.40;0.40;;;12.80;47.30;;;;;;5085936;28;45335;-68
2023/03/12 10:15:39;;;;;;;0.30;0.30;;;12.80;47.30;;;;;;5085962;28;45247;-69
2023/03/12 10:18:11;;;;;;;0.50;0.50;;;12.80;47.40;;;;;;5086343;28;45415;-68
2023/03/12 10:21:04;;;;;;;0.50;0.50;;;12.80;47.30;;;;;;5086049;28;45664;-68
2023/03/12 10:23:41;;;;;;;0.30;0.30;;;12.80;47.30;;;;;;5085922;28;45561;-68
2023/03/12 10:26:11;;;;;;;0.40;0.40;;;12.80;47.30;;;;;;5086050;28;45337;-68
2023/03/12 10:28:39;;;;;;;0.40;0.40;;;12.80;47.40;;;;;;5086164;28;45262;-68
2023/03/12 10:31:07;;;;;;;0.57;0.40;;;12.80;47.30;;;;;;5086318;28;45427;-68
2023/03/12 10:33:41;;;;;;;0.30;0.30;;;12.80;47.30;;;;;;5085201;28;45418;-68
2023/03/12 10:36:16;;;;;;;0.40;0.40;;;12.90;47.40;;;;;;5086008;28;45342;-68
2023/03/12 10:38:47;;;;;;;0.40;0.40;;;12.90;48.10;;;;;;5086070;28;45320;-68
2023/03/12 10:41:15;;;;;;;0.53;0.40;;;12.90;47.50;;;;;;5085916;28;45559;-68
2023/03/12 10:43:42;;;;;;;0.40;0.40;;;12.90;47.40;;;;;;5085610;28;45608;-68
2023/03/12 10:46:39;;;;;;;0.50;0.50;;;12.90;47.40;;;;;;5085714;28;45399;-68
2023/03/12 10:49:27;;;;;;;0.30;0.30;;;13.00;47.40;;;;;;5075138;28;45384;-68
2023/03/12 10:51:55;;;;;;;0.45;0.45;;;13.00;48.10;;;;;;5085982;28;45371;-68
2023/03/12 10:54:26;;;;;;;0.53;0.37;;;13.00;47.30;;;;;;5085507;28;45579;-68
2023/03/12 10:56:52;;;;;;;0.57;0.43;;;13.00;47.40;;;;;;5085570;28;45244;-68
2023/03/12 10:59:22;;;;;;;0.40;0.40;;;13.00;47.40;;;;;;5085957;28;45419;-68
2023/03/12 11:01:50;;;;;;;0.33;0.33;;;13.10;47.40;;;;;;5085757;28;45502;-69
2023/03/12 11:04:18;;;;;;;0.47;0.47;;;13.10;47.50;;;;;;5082794;28;46179;-68
2023/03/12 11:07:01;;;;;;;0.30;0.30;;;13.20;47.30;;;;;;5082187;28;45395;-68
2023/03/12 11:09:30;;;;;;;1.00;0.40;;;13.30;47.20;;;;;;5072550;28;45330;-68
2023/03/12 11:11:57;;;;;;;0.40;0.40;;;13.40;46.90;;;;;;5084709;28;45336;-67
2023/03/12 11:14:24;;;;;;;0.30;0.30;;;13.50;46.80;;;;;;5073737;28;45441;-67
2023/03/12 11:16:51;;;;;;;0.38;0.38;;;13.60;46.60;;;;;;5075666;28;45325;-68
2023/03/12 11:19:29;;;;;;;0.40;0.40;;;13.70;46.40;;;;;;5076634;28;45317;-68
2023/03/12 11:21:57;;;;;;;1.03;0.40;;;13.70;46.40;;;;;;5065137;28;45258;-69
2023/03/12 11:24:24;;;;;;;0.47;0.47;;;13.60;46.50;;;;;;5073239;28;47586;-68
2023/03/12 11:26:53;;;;;;;0.43;0.43;;;13.60;46.70;;;;;;5085197;28;45407;-68
2023/03/12 11:29:28;;;;;;;0.50;0.50;;;13.50;46.80;;;;;;5085656;28;45266;-68
2023/03/12 11:32:02;;;;;;;0.40;0.40;;;13.50;46.90;;;;;;5065269;28;45390;-68
2023/03/12 11:34:30;;;;;;;0.20;0.20;;;13.50;47.00;;;;;;5065893;28;46702;-68
2023/03/12 11:37:03;;;;;;;0.43;0.30;;;13.50;47.00;;;;;;5064790;28;45269;-68
2023/03/12 11:39:33;;;;;;;0.33;0.33;;;13.50;47.10;;;;;;5065256;28;45297;-68
2023/03/12 11:42:16;;;;;;;0.40;0.40;;;13.40;47.20;;;;;;5064743;28;45436;-68
2023/03/12 11:44:49;;;;;;;0.40;0.40;;;13.40;47.30;;;;;;5065700;28;46387;-68
2023/03/12 11:47:27;;;;;;;0.45;0.38;;;13.40;47.40;;;;;;5069455;28;45211;-68
2023/03/12 11:50:01;;;;;;;0.43;0.43;;;13.40;47.40;;;;;;5068361;28;45397;-68
2023/03/12 11:52:31;;;;;;;0.50;0.50;;;13.40;47.40;;;;;;5068304;28;45337;-68
2023/03/12 11:55:10;;;;;;;0.50;0.50;;;13.40;47.50;;;;;;5068147;28;45266;-68
2023/03/12 11:57:43;;;;;;;0.40;0.40;;;13.40;47.60;;;;;;5065586;28;45245;-68
2023/03/12 12:00:13;;;;;;;0.27;0.27;;;13.50;47.60;;;;;;5068431;28;45289;-68
2023/03/12 12:02:56;;;;;;;0.57;0.57;;;13.50;47.50;;;;;;5082866;28;45481;-68
2023/03/12 12:05:27;;;;;;;0.70;0.40;;;13.50;47.50;;;;;;5088216;28;46382;-68
2023/03/12 12:08:13;;;;;;;0.40;0.40;;;13.50;47.60;;;;;;5088380;28;45311;-68
2023/03/12 12:10:45;;;;;;;0.20;0.20;;;13.50;47.70;;;;;;5087812;28;45249;-68
2023/03/12 12:13:15;;;;;;;0.20;0.20;;;13.60;47.50;;;;;;5088585;28;45325;-70
2023/03/12 12:15:45;;;;;;;0.38;0.38;;;13.70;47.30;;;;;;5084586;28;46835;-69
2023/03/12 12:18:34;;;;;;;0.40;0.40;;;14.00;47.20;;;;;;5088354;28;45264;-71
2023/03/12 12:21:04;;;;;;;0.40;0.40;;;14.20;46.70;;;;;;5088480;28;45278;-67
2023/03/12 12:23:38;;;;;;;0.52;0.40;;;14.60;46.50;;;;;;5088302;28;45380;-70
2023/03/12 12:26:07;;;;;;;1.45;0.50;;;14.80;45.90;;;;;;5088006;28;46701;-66
2023/03/12 12:29:03;;;;;;;0.77;0.60;;;15.00;45.70;;;;;;5084065;27;45349;-71
2023/03/12 12:31:35;;;;;;;0.52;0.52;;;15.00;45.90;;;;;;5074279;28;45294;-68
2023/03/12 12:34:19;;;;;;;0.45;0.40;;;15.20;46.10;;;;;;5068778;28;45383;-67
2023/03/12 12:36:48;;;;;;;0.40;0.40;;;15.10;46.20;;;;;;5087924;28;46666;-66
2023/03/12 12:39:17;;;;;;;3.30;0.60;;;15.00;46.30;;;;;;5086248;28;45389;-67
2023/03/12 12:41:45;;;;;;;0.50;0.40;;;14.90;46.50;;;;;;5086091;28;45556;-66
2023/03/12 12:44:14;;;;;;;0.35;0.35;;;14.80;46.80;;;;;;5085706;28;45286;-70
2023/03/12 12:46:44;;;;;;;1.00;0.50;;;14.80;47.10;;;;;;5086510;27;47332;-65
2023/03/12 12:49:12;;;;;;;0.85;0.60;;;14.70;47.20;;;;;;5087684;28;45388;-65
2023/03/12 12:51:40;;;;;;;0.60;0.60;;;14.70;48.10;;;;;;5087780;28;45316;-68
2023/03/12 12:54:10;;;;;;;5.22;0.70;;;14.70;47.60;;;;;;5087846;28;45309;-64
2023/03/12 12:56:40;;;;;;;1.23;0.82;;;14.90;47.70;;;;;;5086801;28;46381;-67